createdAt,value
2023-03-21T00:02:14.673Z,13.58
2023-03-21T00:07:17.811Z,13.78
2023-03-21T00:12:26.561Z,13.60
2023-03-21T00:17:32.856Z,13.33
2023-03-21T00:22:45.073Z,13.33
2023-03-21T00:28:08.006Z,13.43
2023-03-21T00:33:25.343Z,13.44
2023-03-21T00:38:30.833Z,13.50
2023-03-21T00:43:37.785Z,13.57
2023-03-21T00:48:43.436Z,13.46
2023-03-21T00:53:46.900Z,13.53
2023-03-21T00:58:52.673Z,13.61
2023-03-21T01:04:06.554Z,13.74
2023-03-21T01:09:21.313Z,13.81
2023-03-21T01:14:28.392Z,13.85
2023-03-21T01:19:48.695Z,14.02
2023-03-21T01:25:08.738Z,13.97
2023-03-21T01:30:37.023Z,14.15
2023-03-21T01:35:50.494Z,13.67
2023-03-21T02:20:18.545Z,13.31
2023-03-21T02:26:30.752Z,13.31
2023-03-21T02:37:44.664Z,13.39
2023-03-21T02:43:22.900Z,13.40
2023-03-21T02:48:48.098Z,13.43
2023-03-21T02:54:26.545Z,13.41
2023-03-21T02:59:30.129Z,13.25
2023-03-21T03:04:33.350Z,13.13
2023-03-21T03:09:58.532Z,13.20
2023-03-21T03:15:22.195Z,13.16
2023-03-21T03:20:39.784Z,13.08
2023-03-21T03:25:49.844Z,12.96
2023-03-21T03:31:34.506Z,12.91
2023-03-21T03:36:42.738Z,12.94
2023-03-21T03:42:18.462Z,12.93
2023-03-21T03:47:32.242Z,12.97
2023-03-21T03:52:57.001Z,12.99
2023-03-21T03:58:13.165Z,12.93
2023-03-21T04:03:23.601Z,12.70
2023-03-21T04:08:27.119Z,12.62
2023-03-21T04:13:33.871Z,12.50
2023-03-21T04:18:44.815Z,12.42
2023-03-21T04:24:01.777Z,12.42
2023-03-21T04:29:11.130Z,12.54
2023-03-21T04:34:21.818Z,12.54
2023-03-21T04:39:27.187Z,12.64
2023-03-21T04:44:41.067Z,12.63
2023-03-21T05:30:30.574Z,11.90
2023-03-21T05:35:36.590Z,11.99
2023-03-21T05:41:04.579Z,12.05
2023-03-21T05:46:15.497Z,12.21
2023-03-21T05:51:30.048Z,12.19
2023-03-21T05:56:34.157Z,12.35
2023-03-21T06:01:40.387Z,12.36
2023-03-21T06:06:46.188Z,12.16
2023-03-21T06:11:55.056Z,12.43
2023-03-21T06:16:59.142Z,12.44
2023-03-21T06:22:18.489Z,12.61
2023-03-21T06:27:21.607Z,12.66
2023-03-21T06:32:30.722Z,12.69
